sensor_id;sensor_type;location;lat;lon;timestamp;temperature;humidity
4209;DHT22;36320;48.860;2.380;2022-12-05T00:00:13;9.70;70.60
4209;DHT22;36320;48.860;2.380;2022-12-05T00:02:39;9.60;70.40
4209;DHT22;36320;48.860;2.380;2022-12-05T00:05:05;9.60;70.40
4209;DHT22;36320;48.860;2.380;2022-12-05T00:07:31;9.60;70.30
4209;DHT22;36320;48.860;2.380;2022-12-05T00:09:57;9.70;70.50
4209;DHT22;36320;48.860;2.380;2022-12-05T00:12:22;9.60;70.50
4209;DHT22;36320;48.860;2.380;2022-12-05T00:14:48;9.80;70.70
4209;DHT22;36320;48.860;2.380;2022-12-05T00:17:14;9.70;71.40
4209;DHT22;36320;48.860;2.380;2022-12-05T00:19:39;9.50;70.40
4209;DHT22;36320;48.860;2.380;2022-12-05T00:22:05;9.70;71.20
4209;DHT22;36320;48.860;2.380;2022-12-05T00:24:31;9.70;70.30
4209;DHT22;36320;48.860;2.380;2022-12-05T00:26:56;9.70;70.40
4209;DHT22;36320;48.860;2.380;2022-12-05T00:29:22;9.70;70.50
4209;DHT22;36320;48.860;2.380;2022-12-05T00:31:48;9.80;70.60
4209;DHT22;36320;48.860;2.380;2022-12-05T00:34:13;9.80;70.70
4209;DHT22;36320;48.860;2.380;2022-12-05T00:36:39;9.80;70.70
4209;DHT22;36320;48.860;2.380;2022-12-05T00:39:08;9.80;70.70
4209;DHT22;36320;48.860;2.380;2022-12-05T00:41:34;9.80;70.70
4209;DHT22;36320;48.860;2.380;2022-12-05T00:44:00;9.80;70.60
4209;DHT22;36320;48.860;2.380;2022-12-05T00:46:28;9.80;70.50
4209;DHT22;36320;48.860;2.380;2022-12-05T00:48:55;9.70;70.50
4209;DHT22;36320;48.860;2.380;2022-12-05T00:51:22;9.70;70.80
4209;DHT22;36320;48.860;2.380;2022-12-05T00:53:49;9.70;70.80
4209;DHT22;36320;48.860;2.380;2022-12-05T00:56:19;9.70;70.60
4209;DHT22;36320;48.860;2.380;2022-12-05T00:58:45;9.70;70.80
4209;DHT22;36320;48.860;2.380;2022-12-05T01:01:15;9.70;70.80
4209;DHT22;36320;48.860;2.380;2022-12-05T01:03:42;9.70;70.50
4209;DHT22;36320;48.860;2.380;2022-12-05T01:06:08;9.80;70.70
4209;DHT22;36320;48.860;2.380;2022-12-05T01:08:35;9.80;70.90
4209;DHT22;36320;48.860;2.380;2022-12-05T01:11:02;9.70;70.90
4209;DHT22;36320;48.860;2.380;2022-12-05T01:13:28;9.70;70.90
4209;DHT22;36320;48.860;2.380;2022-12-05T01:15:54;9.70;70.60
4209;DHT22;36320;48.860;2.380;2022-12-05T01:18:21;9.70;70.80
4209;DHT22;36320;48.860;2.380;2022-12-05T01:20:47;9.70;70.70
4209;DHT22;36320;48.860;2.380;2022-12-05T01:23:13;9.60;70.60
4209;DHT22;36320;48.860;2.380;2022-12-05T01:25:41;9.60;70.60
4209;DHT22;36320;48.860;2.380;2022-12-05T01:28:07;9.60;70.60
4209;DHT22;36320;48.860;2.380;2022-12-05T01:30:40;9.70;70.80
4209;DHT22;36320;48.860;2.380;2022-12-05T01:33:06;9.70;70.70
4209;DHT22;36320;48.860;2.380;2022-12-05T01:35:33;9.70;70.90
4209;DHT22;36320;48.860;2.380;2022-12-05T01:37:59;9.70;70.90
4209;DHT22;36320;48.860;2.380;2022-12-05T01:40:25;9.70;71.00
4209;DHT22;36320;48.860;2.380;2022-12-05T01:42:51;9.70;70.90
4209;DHT22;36320;48.860;2.380;2022-12-05T01:47:57;9.60;70.80
4209;DHT22;36320;48.860;2.380;2022-12-05T01:50:23;9.70;71.10
4209;DHT22;36320;48.860;2.380;2022-12-05T01:52:49;9.70;70.90
4209;DHT22;36320;48.860;2.380;2022-12-05T01:55:17;9.60;70.80
4209;DHT22;36320;48.860;2.380;2022-12-05T01:57:44;9.60;70.90
4209;DHT22;36320;48.860;2.380;2022-12-05T02:00:15;9.60;70.80
4209;DHT22;36320;48.860;2.380;2022-12-05T02:02:48;9.60;70.70
4209;DHT22;36320;48.860;2.380;2022-12-05T02:05:22;9.60;70.80
4209;DHT22;36320;48.860;2.380;2022-12-05T02:07:50;9.60;70.60
4209;DHT22;36320;48.860;2.380;2022-12-05T02:10:18;9.70;70.80
4209;DHT22;36320;48.860;2.380;2022-12-05T02:12:44;9.60;70.60
4209;DHT22;36320;48.860;2.380;2022-12-05T02:23:36;9.60;70.10
4209;DHT22;36320;48.860;2.380;2022-12-05T02:34:51;9.60;70.30
4209;DHT22;36320;48.860;2.380;2022-12-05T02:43:42;9.50;70.40
4209;DHT22;36320;48.860;2.380;2022-12-05T02:46:16;9.60;70.20
4209;DHT22;36320;48.860;2.380;2022-12-05T02:48:45;9.60;70.10
4209;DHT22;36320;48.860;2.380;2022-12-05T02:51:14;9.70;70.20
4209;DHT22;36320;48.860;2.380;2022-12-05T02:53:42;9.60;70.00
4209;DHT22;36320;48.860;2.380;2022-12-05T02:56:09;9.50;70.00
4209;DHT22;36320;48.860;2.380;2022-12-05T02:58:52;9.60;70.20
4209;DHT22;36320;48.860;2.380;2022-12-05T03:01:24;9.50;70.10
4209;DHT22;36320;48.860;2.380;2022-12-05T03:03:52;9.50;70.10
4209;DHT22;36320;48.860;2.380;2022-12-05T03:06:27;9.40;70.10
4209;DHT22;36320;48.860;2.380;2022-12-05T03:08:59;9.50;70.10
4209;DHT22;36320;48.860;2.380;2022-12-05T03:11:28;9.40;70.20
4209;DHT22;36320;48.860;2.380;2022-12-05T03:13:57;9.60;70.30
4209;DHT22;36320;48.860;2.380;2022-12-05T03:16:33;9.40;70.20
4209;DHT22;36320;48.860;2.380;2022-12-05T03:19:07;9.40;70.30
4209;DHT22;36320;48.860;2.380;2022-12-05T03:21:39;9.60;70.50
4209;DHT22;36320;48.860;2.380;2022-12-05T03:24:11;9.40;70.30
4209;DHT22;36320;48.860;2.380;2022-12-05T03:29:39;9.50;70.70
4209;DHT22;36320;48.860;2.380;2022-12-05T03:35:38;9.40;70.40
4209;DHT22;36320;48.860;2.380;2022-12-05T03:38:52;9.40;70.40
4209;DHT22;36320;48.860;2.380;2022-12-05T03:40:53;9.40;70.40
4209;DHT22;36320;48.860;2.380;2022-12-05T03:51:40;9.40;70.30
4209;DHT22;36320;48.860;2.380;2022-12-05T03:57:01;9.40;70.90
4209;DHT22;36320;48.860;2.380;2022-12-05T03:59:36;9.30;70.10
4209;DHT22;36320;48.860;2.380;2022-12-05T04:02:08;9.30;70.10
4209;DHT22;36320;48.860;2.380;2022-12-05T04:04:38;9.30;70.10
4209;DHT22;36320;48.860;2.380;2022-12-05T04:07:06;9.20;70.00
4209;DHT22;36320;48.860;2.380;2022-12-05T04:09:46;9.20;70.00
4209;DHT22;36320;48.860;2.380;2022-12-05T04:12:20;9.30;70.40
4209;DHT22;36320;48.860;2.380;2022-12-05T04:14:51;9.30;70.40
4209;DHT22;36320;48.860;2.380;2022-12-05T04:17:47;9.30;70.30
4209;DHT22;36320;48.860;2.380;2022-12-05T04:20:22;9.30;70.30
4209;DHT22;36320;48.860;2.380;2022-12-05T04:23:08;9.30;70.20
4209;DHT22;36320;48.860;2.380;2022-12-05T04:28:54;9.20;70.00
4209;DHT22;36320;48.860;2.380;2022-12-05T04:31:50;9.30;70.10
4209;DHT22;36320;48.860;2.380;2022-12-05T04:34:16;9.20;70.00
4209;DHT22;36320;48.860;2.380;2022-12-05T04:36:54;9.30;70.00
4209;DHT22;36320;48.860;2.380;2022-12-05T04:42:19;9.30;70.10
4209;DHT22;36320;48.860;2.380;2022-12-05T04:45:01;9.30;70.00
4209;DHT22;36320;48.860;2.380;2022-12-05T04:47:35;9.30;69.80
4209;DHT22;36320;48.860;2.380;2022-12-05T04:50:03;9.30;69.80
4209;DHT22;36320;48.860;2.380;2022-12-05T04:52:29;9.20;69.70
4209;DHT22;36320;48.860;2.380;2022-12-05T04:55:11;9.20;69.70
4209;DHT22;36320;48.860;2.380;2022-12-05T05:00:37;9.20;69.70
4209;DHT22;36320;48.860;2.380;2022-12-05T05:05:51;9.40;69.90
4209;DHT22;36320;48.860;2.380;2022-12-05T05:08:25;9.30;69.80
4209;DHT22;36320;48.860;2.380;2022-12-05T05:11:20;9.30;69.90
4209;DHT22;36320;48.860;2.380;2022-12-05T05:13:47;9.30;69.90
4209;DHT22;36320;48.860;2.380;2022-12-05T05:16:22;9.30;69.80
4209;DHT22;36320;48.860;2.380;2022-12-05T05:18:50;9.40;69.90
4209;DHT22;36320;48.860;2.380;2022-12-05T05:21:23;9.40;70.00
4209;DHT22;36320;48.860;2.380;2022-12-05T05:23:49;9.40;69.90
4209;DHT22;36320;48.860;2.380;2022-12-05T05:26:15;9.40;69.70
4209;DHT22;36320;48.860;2.380;2022-12-05T05:28:41;9.30;69.60
4209;DHT22;36320;48.860;2.380;2022-12-05T05:31:07;9.40;69.80
4209;DHT22;36320;48.860;2.380;2022-12-05T05:33:34;9.40;69.80
4209;DHT22;36320;48.860;2.380;2022-12-05T05:36:08;9.40;69.90
4209;DHT22;36320;48.860;2.380;2022-12-05T05:38:35;9.40;70.00
4209;DHT22;36320;48.860;2.380;2022-12-05T05:41:02;9.40;70.10
4209;DHT22;36320;48.860;2.380;2022-12-05T05:43:28;9.40;70.00
4209;DHT22;36320;48.860;2.380;2022-12-05T05:45:55;9.50;70.10
4209;DHT22;36320;48.860;2.380;2022-12-05T05:48:21;9.50;70.10
4209;DHT22;36320;48.860;2.380;2022-12-05T05:50:47;9.40;70.00
4209;DHT22;36320;48.860;2.380;2022-12-05T05:53:13;9.40;70.10
4209;DHT22;36320;48.860;2.380;2022-12-05T05:55:41;9.40;70.20
4209;DHT22;36320;48.860;2.380;2022-12-05T05:58:08;9.50;70.40
4209;DHT22;36320;48.860;2.380;2022-12-05T06:00:34;9.50;70.20
4209;DHT22;36320;48.860;2.380;2022-12-05T06:03:00;9.40;70.10
4209;DHT22;36320;48.860;2.380;2022-12-05T06:05:25;9.40;70.00
4209;DHT22;36320;48.860;2.380;2022-12-05T06:07:52;9.40;70.00
4209;DHT22;36320;48.860;2.380;2022-12-05T06:10:18;9.40;70.00
4209;DHT22;36320;48.860;2.380;2022-12-05T06:12:44;9.40;70.10
4209;DHT22;36320;48.860;2.380;2022-12-05T06:15:10;9.60;70.40
4209;DHT22;36320;48.860;2.380;2022-12-05T06:17:35;9.40;70.80
4209;DHT22;36320;48.860;2.380;2022-12-05T06:20:01;9.40;70.00
4209;DHT22;36320;48.860;2.380;2022-12-05T06:22:28;9.40;69.70
4209;DHT22;36320;48.860;2.380;2022-12-05T06:24:54;9.40;69.70
4209;DHT22;36320;48.860;2.380;2022-12-05T06:27:20;9.40;69.60
4209;DHT22;36320;48.860;2.380;2022-12-05T06:29:46;9.50;69.90
4209;DHT22;36320;48.860;2.380;2022-12-05T06:32:11;9.50;69.70
4209;DHT22;36320;48.860;2.380;2022-12-05T06:34:37;9.60;69.80
4209;DHT22;36320;48.860;2.380;2022-12-05T06:37:03;9.60;69.80
4209;DHT22;36320;48.860;2.380;2022-12-05T06:39:29;9.60;69.40
4209;DHT22;36320;48.860;2.380;2022-12-05T06:41:54;9.60;69.50
4209;DHT22;36320;48.860;2.380;2022-12-05T06:44:20;9.60;69.40
4209;DHT22;36320;48.860;2.380;2022-12-05T06:46:47;9.60;69.30
4209;DHT22;36320;48.860;2.380;2022-12-05T06:49:13;9.70;69.40
4209;DHT22;36320;48.860;2.380;2022-12-05T06:51:38;9.70;69.40
4209;DHT22;36320;48.860;2.380;2022-12-05T06:54:04;9.70;69.40
4209;DHT22;36320;48.860;2.380;2022-12-05T06:56:29;9.70;69.30
4209;DHT22;36320;48.860;2.380;2022-12-05T06:58:55;9.70;69.30
4209;DHT22;36320;48.860;2.380;2022-12-05T07:01:22;9.80;69.50
4209;DHT22;36320;48.860;2.380;2022-12-05T07:04:14;9.80;69.50
4209;DHT22;36320;48.860;2.380;2022-12-05T07:06:42;9.70;69.40
4209;DHT22;36320;48.860;2.380;2022-12-05T07:09:09;9.80;69.50
4209;DHT22;36320;48.860;2.380;2022-12-05T07:11:36;9.80;69.40
4209;DHT22;36320;48.860;2.380;2022-12-05T07:14:03;9.80;69.40
4209;DHT22;36320;48.860;2.380;2022-12-05T07:16:30;9.80;69.60
4209;DHT22;36320;48.860;2.380;2022-12-05T07:18:56;9.80;69.60
4209;DHT22;36320;48.860;2.380;2022-12-05T07:21:23;9.80;69.80
4209;DHT22;36320;48.860;2.380;2022-12-05T07:23:49;9.80;70.00
4209;DHT22;36320;48.860;2.380;2022-12-05T07:26:20;9.80;70.00
4209;DHT22;36320;48.860;2.380;2022-12-05T07:28:46;9.80;70.10
4209;DHT22;36320;48.860;2.380;2022-12-05T07:31:17;9.90;69.80
4209;DHT22;36320;48.860;2.380;2022-12-05T07:33:44;9.80;69.60
4209;DHT22;36320;48.860;2.380;2022-12-05T07:36:13;9.70;69.40
4209;DHT22;36320;48.860;2.380;2022-12-05T07:38:39;9.70;69.30
4209;DHT22;36320;48.860;2.380;2022-12-05T07:41:06;9.70;69.30
4209;DHT22;36320;48.860;2.380;2022-12-05T07:43:32;9.70;69.20
4209;DHT22;36320;48.860;2.380;2022-12-05T07:46:03;9.70;69.20
4209;DHT22;36320;48.860;2.380;2022-12-05T07:48:29;9.60;69.00
4209;DHT22;36320;48.860;2.380;2022-12-05T07:50:59;9.30;69.80
4209;DHT22;36320;48.860;2.380;2022-12-05T07:53:26;8.80;70.40
4209;DHT22;36320;48.860;2.380;2022-12-05T07:55:52;8.60;71.50
4209;DHT22;36320;48.860;2.380;2022-12-05T07:58:34;8.10;71.60
4209;DHT22;36320;48.860;2.380;2022-12-05T08:01:14;7.70;71.80
4209;DHT22;36320;48.860;2.380;2022-12-05T08:03:42;7.60;72.60
4209;DHT22;36320;48.860;2.380;2022-12-05T08:06:13;7.30;73.10
4209;DHT22;36320;48.860;2.380;2022-12-05T08:08:39;7.40;73.60
4209;DHT22;36320;48.860;2.380;2022-12-05T08:11:18;7.50;73.50
4209;DHT22;36320;48.860;2.380;2022-12-05T08:13:45;7.70;73.90
4209;DHT22;36320;48.860;2.380;2022-12-05T08:16:13;7.80;74.00
4209;DHT22;36320;48.860;2.380;2022-12-05T08:18:42;7.90;74.00
4209;DHT22;36320;48.860;2.380;2022-12-05T08:21:16;7.60;73.70
4209;DHT22;36320;48.860;2.380;2022-12-05T08:23:43;7.30;74.30
4209;DHT22;36320;48.860;2.380;2022-12-05T08:26:16;7.40;74.80
4209;DHT22;36320;48.860;2.380;2022-12-05T08:28:49;7.40;75.10
4209;DHT22;36320;48.860;2.380;2022-12-05T08:31:18;7.30;74.90
4209;DHT22;36320;48.860;2.380;2022-12-05T08:33:44;7.90;75.10
4209;DHT22;36320;48.860;2.380;2022-12-05T08:36:12;7.90;74.70
4209;DHT22;36320;48.860;2.380;2022-12-05T08:38:46;7.90;75.00
4209;DHT22;36320;48.860;2.380;2022-12-05T08:41:16;8.10;75.10
4209;DHT22;36320;48.860;2.380;2022-12-05T08:43:43;8.10;75.10
4209;DHT22;36320;48.860;2.380;2022-12-05T08:46:11;8.00;74.60
4209;DHT22;36320;48.860;2.380;2022-12-05T08:48:38;7.80;74.70
4209;DHT22;36320;48.860;2.380;2022-12-05T08:51:08;7.60;75.30
4209;DHT22;36320;48.860;2.380;2022-12-05T08:53:37;7.90;75.60
4209;DHT22;36320;48.860;2.380;2022-12-05T08:56:04;8.20;75.60
4209;DHT22;36320;48.860;2.380;2022-12-05T08:58:31;8.20;75.50
4209;DHT22;36320;48.860;2.380;2022-12-05T09:01:12;8.30;75.30
4209;DHT22;36320;48.860;2.380;2022-12-05T09:03:40;9.10;75.80
4209;DHT22;36320;48.860;2.380;2022-12-05T09:06:21;8.10;74.80
4209;DHT22;36320;48.860;2.380;2022-12-05T09:08:47;8.10;74.60
4209;DHT22;36320;48.860;2.380;2022-12-05T09:11:19;8.10;74.70
4209;DHT22;36320;48.860;2.380;2022-12-05T09:13:46;8.20;74.90
4209;DHT22;36320;48.860;2.380;2022-12-05T09:16:16;8.10;74.60
4209;DHT22;36320;48.860;2.380;2022-12-05T09:18:43;7.80;74.60
4209;DHT22;36320;48.860;2.380;2022-12-05T09:21:12;8.00;75.00
4209;DHT22;36320;48.860;2.380;2022-12-05T09:23:39;8.20;75.60
4209;DHT22;36320;48.860;2.380;2022-12-05T09:26:08;8.30;74.70
4209;DHT22;36320;48.860;2.380;2022-12-05T09:28:36;8.30;74.30
4209;DHT22;36320;48.860;2.380;2022-12-05T09:31:05;8.30;74.30
4209;DHT22;36320;48.860;2.380;2022-12-05T09:33:34;8.30;74.40
4209;DHT22;36320;48.860;2.380;2022-12-05T09:36:18;8.30;74.30
4209;DHT22;36320;48.860;2.380;2022-12-05T09:38:45;8.40;74.50
4209;DHT22;36320;48.860;2.380;2022-12-05T09:41:52;8.50;74.10
4209;DHT22;36320;48.860;2.380;2022-12-05T09:47:59;8.20;74.10
4209;DHT22;36320;48.860;2.380;2022-12-05T09:50:39;8.40;74.00
4209;DHT22;36320;48.860;2.380;2022-12-05T09:53:09;8.60;73.90
4209;DHT22;36320;48.860;2.380;2022-12-05T09:56:11;8.60;73.60
4209;DHT22;36320;48.860;2.380;2022-12-05T09:58:49;8.70;73.50
4209;DHT22;36320;48.860;2.380;2022-12-05T10:07:24;8.20;73.50
4209;DHT22;36320;48.860;2.380;2022-12-05T10:10:21;8.30;73.60
4209;DHT22;36320;48.860;2.380;2022-12-05T10:20:47;8.30;73.90
4209;DHT22;36320;48.860;2.380;2022-12-05T10:23:27;8.40;73.70
4209;DHT22;36320;48.860;2.380;2022-12-05T10:26:01;8.50;73.40
4209;DHT22;36320;48.860;2.380;2022-12-05T10:31:35;8.30;72.70
4209;DHT22;36320;48.860;2.380;2022-12-05T10:34:11;8.50;73.00
4209;DHT22;36320;48.860;2.380;2022-12-05T10:36:53;8.50;72.50
4209;DHT22;36320;48.860;2.380;2022-12-05T10:39:19;8.30;72.30
4209;DHT22;36320;48.860;2.380;2022-12-05T10:41:45;8.30;72.20
4209;DHT22;36320;48.860;2.380;2022-12-05T10:44:11;7.60;71.40
4209;DHT22;36320;48.860;2.380;2022-12-05T10:46:38;8.40;72.40
4209;DHT22;36320;48.860;2.380;2022-12-05T10:49:10;8.40;72.10
4209;DHT22;36320;48.860;2.380;2022-12-05T10:51:38;8.40;72.10
4209;DHT22;36320;48.860;2.380;2022-12-05T10:54:19;8.50;71.80
4209;DHT22;36320;48.860;2.380;2022-12-05T10:56:48;8.60;71.80
4209;DHT22;36320;48.860;2.380;2022-12-05T10:59:17;8.70;71.40
4209;DHT22;36320;48.860;2.380;2022-12-05T11:01:47;9.00;71.50
4209;DHT22;36320;48.860;2.380;2022-12-05T11:04:21;8.80;70.90
4209;DHT22;36320;48.860;2.380;2022-12-05T11:06:59;8.80;71.00
4209;DHT22;36320;48.860;2.380;2022-12-05T11:09:29;8.90;71.20
4209;DHT22;36320;48.860;2.380;2022-12-05T11:12:00;9.00;70.90
4209;DHT22;36320;48.860;2.380;2022-12-05T11:14:31;8.80;70.30
4209;DHT22;36320;48.860;2.380;2022-12-05T11:17:01;8.60;70.30
4209;DHT22;36320;48.860;2.380;2022-12-05T11:19:32;8.70;70.60
4209;DHT22;36320;48.860;2.380;2022-12-05T11:21:58;8.60;70.60
4209;DHT22;36320;48.860;2.380;2022-12-05T11:24:35;8.80;70.90
4209;DHT22;36320;48.860;2.380;2022-12-05T11:29:51;8.80;70.40
4209;DHT22;36320;48.860;2.380;2022-12-05T11:32:23;8.80;70.40
4209;DHT22;36320;48.860;2.380;2022-12-05T11:35:10;8.80;70.40
4209;DHT22;36320;48.860;2.380;2022-12-05T12:04:49;8.70;70.40
4209;DHT22;36320;48.860;2.380;2022-12-05T12:12:56;8.30;69.30
4209;DHT22;36320;48.860;2.380;2022-12-05T12:16:19;8.10;69.70
4209;DHT22;36320;48.860;2.380;2022-12-05T12:35:22;8.30;71.30
4209;DHT22;36320;48.860;2.380;2022-12-05T12:55:21;9.30;69.90
4209;DHT22;36320;48.860;2.380;2022-12-05T13:01:01;9.10;69.40
4209;DHT22;36320;48.860;2.380;2022-12-05T13:06:37;9.20;69.20
4209;DHT22;36320;48.860;2.380;2022-12-05T13:11:54;9.10;69.20
4209;DHT22;36320;48.860;2.380;2022-12-05T13:14:28;9.20;69.40
4209;DHT22;36320;48.860;2.380;2022-12-05T13:16:57;9.30;69.20
4209;DHT22;36320;48.860;2.380;2022-12-05T13:19:42;9.00;68.50
4209;DHT22;36320;48.860;2.380;2022-12-05T13:22:10;8.90;69.20
4209;DHT22;36320;48.860;2.380;2022-12-05T13:24:39;8.80;69.00
4209;DHT22;36320;48.860;2.380;2022-12-05T13:27:12;8.80;69.20
4209;DHT22;36320;48.860;2.380;2022-12-05T13:37:53;8.60;68.60
4209;DHT22;36320;48.860;2.380;2022-12-05T13:40:46;9.00;69.00
4209;DHT22;36320;48.860;2.380;2022-12-05T13:43:41;9.80;69.20
4209;DHT22;36320;48.860;2.380;2022-12-05T13:46:22;8.80;68.10
4209;DHT22;36320;48.860;2.380;2022-12-05T13:49:01;8.60;68.60
4209;DHT22;36320;48.860;2.380;2022-12-05T13:51:50;11.30;69.90
4209;DHT22;36320;48.860;2.380;2022-12-05T13:54:25;11.00;69.50
4209;DHT22;36320;48.860;2.380;2022-12-05T13:57:02;8.70;68.10
4209;DHT22;36320;48.860;2.380;2022-12-05T13:59:58;9.00;68.10
4209;DHT22;36320;48.860;2.380;2022-12-05T14:02:47;8.90;68.20
4209;DHT22;36320;48.860;2.380;2022-12-05T14:07:53;8.80;68.60
4209;DHT22;36320;48.860;2.380;2022-12-05T14:27:11;7.80;66.10
4209;DHT22;36320;48.860;2.380;2022-12-05T14:30:39;9.40;67.60
4209;DHT22;36320;48.860;2.380;2022-12-05T14:32:53;7.90;66.10
4209;DHT22;36320;48.860;2.380;2022-12-05T14:35:43;9.00;67.20
4209;DHT22;36320;48.860;2.380;2022-12-05T14:38:33;8.90;67.60
4209;DHT22;36320;48.860;2.380;2022-12-05T14:43:37;9.00;67.90
4209;DHT22;36320;48.860;2.380;2022-12-05T14:46:05;8.90;67.80
4209;DHT22;36320;48.860;2.380;2022-12-05T14:48:33;8.90;68.10
4209;DHT22;36320;48.860;2.380;2022-12-05T14:51:01;8.90;68.30
4209;DHT22;36320;48.860;2.380;2022-12-05T14:53:39;9.10;68.30
4209;DHT22;36320;48.860;2.380;2022-12-05T14:56:25;9.30;68.30
4209;DHT22;36320;48.860;2.380;2022-12-05T14:59:03;9.10;67.80
4209;DHT22;36320;48.860;2.380;2022-12-05T15:01:47;9.00;68.50
4209;DHT22;36320;48.860;2.380;2022-12-05T15:04:52;8.70;68.50
4209;DHT22;36320;48.860;2.380;2022-12-05T15:07:36;8.90;68.50
4209;DHT22;36320;48.860;2.380;2022-12-05T15:13:25;9.40;69.00
4209;DHT22;36320;48.860;2.380;2022-12-05T15:16:04;9.30;67.80
4209;DHT22;36320;48.860;2.380;2022-12-05T15:18:38;9.10;68.20
4209;DHT22;36320;48.860;2.380;2022-12-05T15:23:43;8.90;68.80
4209;DHT22;36320;48.860;2.380;2022-12-05T15:29:28;9.00;69.10
4209;DHT22;36320;48.860;2.380;2022-12-05T15:32:03;9.20;69.00
4209;DHT22;36320;48.860;2.380;2022-12-05T15:34:52;9.10;68.70
4209;DHT22;36320;48.860;2.380;2022-12-05T15:37:25;9.10;68.80
4209;DHT22;36320;48.860;2.380;2022-12-05T15:40:16;9.30;68.60
4209;DHT22;36320;48.860;2.380;2022-12-05T15:42:48;9.30;68.30
4209;DHT22;36320;48.860;2.380;2022-12-05T15:47:47;9.30;68.30
4209;DHT22;36320;48.860;2.380;2022-12-05T15:50:15;9.00;68.20
4209;DHT22;36320;48.860;2.380;2022-12-05T15:53:31;9.10;68.60
4209;DHT22;36320;48.860;2.380;2022-12-05T15:58:28;8.90;68.20
4209;DHT22;36320;48.860;2.380;2022-12-05T16:08:52;9.00;68.50
4209;DHT22;36320;48.860;2.380;2022-12-05T16:11:18;8.90;68.40
4209;DHT22;36320;48.860;2.380;2022-12-05T16:13:47;8.90;68.60
4209;DHT22;36320;48.860;2.380;2022-12-05T16:16:20;9.70;69.30
4209;DHT22;36320;48.860;2.380;2022-12-05T16:18:55;9.00;68.70
4209;DHT22;36320;48.860;2.380;2022-12-05T16:21:32;9.20;68.70
4209;DHT22;36320;48.860;2.380;2022-12-05T16:24:02;9.20;68.50
4209;DHT22;36320;48.860;2.380;2022-12-05T16:26:28;9.20;68.30
4209;DHT22;36320;48.860;2.380;2022-12-05T16:29:01;9.30;68.20
4209;DHT22;36320;48.860;2.380;2022-12-05T16:31:31;9.10;68.10
4209;DHT22;36320;48.860;2.380;2022-12-05T16:34:06;9.10;68.60
4209;DHT22;36320;48.860;2.380;2022-12-05T16:36:35;9.20;68.30
4209;DHT22;36320;48.860;2.380;2022-12-05T16:39:05;9.30;68.10
4209;DHT22;36320;48.860;2.380;2022-12-05T16:41:37;9.40;68.30
4209;DHT22;36320;48.860;2.380;2022-12-05T16:44:04;9.50;68.90
4209;DHT22;36320;48.860;2.380;2022-12-05T16:52:15;9.00;68.50
4209;DHT22;36320;48.860;2.380;2022-12-05T16:54:42;9.20;68.50
4209;DHT22;36320;48.860;2.380;2022-12-05T16:57:12;9.30;68.40
4209;DHT22;36320;48.860;2.380;2022-12-05T16:59:39;9.40;68.40
4209;DHT22;36320;48.860;2.380;2022-12-05T17:02:15;9.20;67.90
4209;DHT22;36320;48.860;2.380;2022-12-05T17:04:41;9.10;68.20
4209;DHT22;36320;48.860;2.380;2022-12-05T17:07:08;9.10;68.20
4209;DHT22;36320;48.860;2.380;2022-12-05T17:09:34;9.30;68.10
4209;DHT22;36320;48.860;2.380;2022-12-05T17:12:32;9.30;68.60
4209;DHT22;36320;48.860;2.380;2022-12-05T17:14:57;9.20;68.20
4209;DHT22;36320;48.860;2.380;2022-12-05T17:17:23;9.30;68.20
4209;DHT22;36320;48.860;2.380;2022-12-05T17:19:49;9.30;68.00
4209;DHT22;36320;48.860;2.380;2022-12-05T17:22:15;9.20;67.80
4209;DHT22;36320;48.860;2.380;2022-12-05T17:24:53;9.00;68.30
4209;DHT22;36320;48.860;2.380;2022-12-05T17:27:23;9.10;68.40
4209;DHT22;36320;48.860;2.380;2022-12-05T17:29:48;9.20;68.50
4209;DHT22;36320;48.860;2.380;2022-12-05T17:32:14;9.40;68.40
4209;DHT22;36320;48.860;2.380;2022-12-05T17:34:40;9.40;68.10
4209;DHT22;36320;48.860;2.380;2022-12-05T17:37:06;9.40;68.00
4209;DHT22;36320;48.860;2.380;2022-12-05T17:39:31;9.40;68.10
4209;DHT22;36320;48.860;2.380;2022-12-05T17:41:57;9.40;68.00
4209;DHT22;36320;48.860;2.380;2022-12-05T17:44:23;9.50;68.10
4209;DHT22;36320;48.860;2.380;2022-12-05T17:46:49;9.30;68.10
4209;DHT22;36320;48.860;2.380;2022-12-05T17:49:15;9.30;68.40
4209;DHT22;36320;48.860;2.380;2022-12-05T17:51:44;9.30;68.30
4209;DHT22;36320;48.860;2.380;2022-12-05T17:54:11;9.20;68.40
4209;DHT22;36320;48.860;2.380;2022-12-05T17:56:36;9.30;68.50
4209;DHT22;36320;48.860;2.380;2022-12-05T17:59:02;9.30;68.40
4209;DHT22;36320;48.860;2.380;2022-12-05T18:01:32;9.20;68.50
4209;DHT22;36320;48.860;2.380;2022-12-05T18:03:58;9.30;68.70
4209;DHT22;36320;48.860;2.380;2022-12-05T18:06:29;9.10;68.50
4209;DHT22;36320;48.860;2.380;2022-12-05T18:08:55;9.10;68.70
4209;DHT22;36320;48.860;2.380;2022-12-05T18:11:21;8.80;68.80
4209;DHT22;36320;48.860;2.380;2022-12-05T18:13:47;8.90;69.50
4209;DHT22;36320;48.860;2.380;2022-12-05T18:16:12;8.70;68.80
4209;DHT22;36320;48.860;2.380;2022-12-05T18:18:38;8.70;69.00
4209;DHT22;36320;48.860;2.380;2022-12-05T18:21:09;8.60;69.60
4209;DHT22;36320;48.860;2.380;2022-12-05T18:23:36;8.80;69.80
4209;DHT22;36320;48.860;2.380;2022-12-05T18:26:04;8.90;69.60
4209;DHT22;36320;48.860;2.380;2022-12-05T18:28:30;8.90;69.60
4209;DHT22;36320;48.860;2.380;2022-12-05T18:31:13;9.10;69.80
4209;DHT22;36320;48.860;2.380;2022-12-05T18:33:43;9.10;69.50
4209;DHT22;36320;48.860;2.380;2022-12-05T18:36:14;9.20;69.30
4209;DHT22;36320;48.860;2.380;2022-12-05T18:38:40;9.10;68.70
4209;DHT22;36320;48.860;2.380;2022-12-05T18:41:08;8.90;69.10
4209;DHT22;36320;48.860;2.380;2022-12-05T18:43:35;8.90;69.20
4209;DHT22;36320;48.860;2.380;2022-12-05T18:46:02;8.90;69.20
4209;DHT22;36320;48.860;2.380;2022-12-05T18:48:33;9.00;69.40
4209;DHT22;36320;48.860;2.380;2022-12-05T18:51:11;9.10;69.30
4209;DHT22;36320;48.860;2.380;2022-12-05T18:53:38;9.10;69.20
4209;DHT22;36320;48.860;2.380;2022-12-05T19:11:04;10.10;65.50
4209;DHT22;36320;48.860;2.380;2022-12-05T19:13:30;10.20;65.90
4209;DHT22;36320;48.860;2.380;2022-12-05T19:16:03;10.20;65.60
4209;DHT22;36320;48.860;2.380;2022-12-05T19:18:29;10.30;65.40
4209;DHT22;36320;48.860;2.380;2022-12-05T19:20:55;10.30;65.20
4209;DHT22;36320;48.860;2.380;2022-12-05T19:23:21;10.40;65.20
4209;DHT22;36320;48.860;2.380;2022-12-05T19:25:47;10.50;65.30
4209;DHT22;36320;48.860;2.380;2022-12-05T19:28:12;10.60;65.40
4209;DHT22;36320;48.860;2.380;2022-12-05T19:30:38;10.60;65.30
4209;DHT22;36320;48.860;2.380;2022-12-05T19:33:04;10.60;65.10
4209;DHT22;36320;48.860;2.380;2022-12-05T19:35:30;10.60;65.00
4209;DHT22;36320;48.860;2.380;2022-12-05T19:37:59;10.70;65.00
4209;DHT22;36320;48.860;2.380;2022-12-05T19:40:24;10.80;65.00
4209;DHT22;36320;48.860;2.380;2022-12-05T19:42:50;10.70;64.80
4209;DHT22;36320;48.860;2.380;2022-12-05T19:45:15;10.70;64.50
4209;DHT22;36320;48.860;2.380;2022-12-05T19:47:41;10.80;64.50
4209;DHT22;36320;48.860;2.380;2022-12-05T19:50:07;10.80;64.50
4209;DHT22;36320;48.860;2.380;2022-12-05T19:52:36;10.80;64.40
4209;DHT22;36320;48.860;2.380;2022-12-05T19:55:05;10.80;64.10
4209;DHT22;36320;48.860;2.380;2022-12-05T19:57:30;10.80;63.90
4209;DHT22;36320;48.860;2.380;2022-12-05T19:59:56;10.80;63.70
4209;DHT22;36320;48.860;2.380;2022-12-05T20:02:21;10.80;63.70
4209;DHT22;36320;48.860;2.380;2022-12-05T20:04:48;10.70;63.50
4209;DHT22;36320;48.860;2.380;2022-12-05T20:07:14;10.70;63.50
4209;DHT22;36320;48.860;2.380;2022-12-05T20:09:39;10.70;63.40